Time;durP1;ratioP1;P1;durP2;ratioP2;P2;SDS_P1;SDS_P2;PMS_P1;PMS_P2;Temp;Humidity;BMP_temperature;BMP_pressure;BME280_temperature;BME280_humidity;BME280_pressure;Samples;Min_cycle;Max_cycle;Signal;HPM_P1;HPM_P2
2023/11/01 00:00:52;;;;;;;5.60;2.40;;;11.50;99.90;;;;;;2061889;28;20041;-78
2023/11/01 00:01:52;;;;;;;5.70;2.40;;;11.50;99.90;;;;;;2044489;28;20122;-81
2023/11/01 00:02:53;;;;;;;6.30;2.60;;;11.40;99.90;;;;;;2053224;28;20058;-78
2023/11/01 00:03:53;;;;;;;5.18;2.40;;;11.40;99.90;;;;;;2066970;28;20060;-79
2023/11/01 00:04:54;;;;;;;5.32;2.55;;;11.40;99.90;;;;;;2063423;28;20119;-78
2023/11/01 00:05:54;;;;;;;6.05;2.80;;;11.40;99.90;;;;;;2051708;28;20821;-78
2023/11/01 00:06:55;;;;;;;4.47;2.42;;;11.40;99.90;;;;;;2060232;28;20053;-80
2023/11/01 00:07:57;;;;;;;4.18;2.40;;;11.30;99.90;;;;;;2067498;28;20116;-80
2023/11/01 00:08:57;;;;;;;8.25;2.30;;;11.30;99.90;;;;;;2067939;28;20524;-79
2023/11/01 00:09:58;;;;;;;7.53;2.47;;;11.30;99.90;;;;;;2067621;28;20040;-79
2023/11/01 00:10:59;;;;;;;6.00;2.53;;;11.30;99.90;;;;;;2068228;28;20061;-80
2023/11/01 00:11:59;;;;;;;5.07;2.40;;;11.30;99.90;;;;;;2064048;28;20097;-79
2023/11/01 00:13:00;;;;;;;3.80;2.60;;;11.30;99.90;;;;;;2058499;28;20116;-81
2023/11/01 00:14:02;;;;;;;4.25;2.40;;;11.30;99.90;;;;;;2059302;28;20022;-82
2023/11/01 00:15:03;;;;;;;6.82;2.65;;;11.30;99.90;;;;;;2063913;28;20030;-78
2023/11/01 00:16:04;;;;;;;5.55;2.50;;;11.20;99.90;;;;;;2060076;28;20460;-77
2023/11/01 00:17:05;;;;;;;5.90;2.30;;;11.30;99.90;;;;;;2056811;28;20030;-79
2023/11/01 00:18:05;;;;;;;4.18;2.45;;;11.30;99.90;;;;;;2066370;28;20033;-79
2023/11/01 00:19:06;;;;;;;5.28;2.45;;;11.30;99.90;;;;;;2060198;28;20061;-79
2023/11/01 00:20:07;;;;;;;7.90;2.60;;;11.20;99.90;;;;;;2047332;28;20027;-80
2023/11/01 00:21:08;;;;;;;6.32;2.42;;;11.20;99.90;;;;;;2060190;28;20034;-81
2023/11/01 00:22:09;;;;;;;4.82;2.60;;;11.20;99.90;;;;;;2066749;28;20049;-81
2023/11/01 00:23:10;;;;;;;5.60;2.33;;;11.20;99.90;;;;;;2064942;28;20030;-78
2023/11/01 00:24:10;;;;;;;5.30;2.60;;;11.20;99.90;;;;;;2066073;28;20109;-80
2023/11/01 00:25:11;;;;;;;4.25;2.50;;;11.20;99.90;;;;;;2060296;28;20656;-83
2023/11/01 00:26:11;;;;;;;4.32;2.30;;;11.30;99.90;;;;;;2064228;28;20181;-83
2023/11/01 00:27:12;;;;;;;7.43;2.65;;;11.20;99.90;;;;;;2057898;28;20061;-83
2023/11/01 00:28:13;;;;;;;6.60;2.60;;;11.20;99.90;;;;;;2054705;28;20088;-83
2023/11/01 00:29:14;;;;;;;5.30;2.65;;;11.20;99.90;;;;;;2054895;28;20035;-84
2023/11/01 00:30:15;;;;;;;7.57;2.60;;;11.20;99.90;;;;;;2054228;28;20579;-82
2023/11/01 00:31:16;;;;;;;5.10;2.83;;;11.20;99.90;;;;;;2063610;28;20045;-81
2023/11/01 00:32:17;;;;;;;5.80;2.40;;;11.20;99.90;;;;;;2067917;28;20030;-80
2023/11/01 00:33:17;;;;;;;6.38;2.33;;;11.20;99.90;;;;;;2061140;28;20049;-79
2023/11/01 00:34:18;;;;;;;8.02;2.70;;;11.10;99.90;;;;;;2060897;28;20026;-80
2023/11/01 00:35:18;;;;;;;4.68;2.72;;;11.20;99.90;;;;;;2061968;28;20134;-79
2023/11/01 00:36:19;;;;;;;4.28;2.40;;;11.20;99.90;;;;;;2062302;28;20039;-80
2023/11/01 00:37:20;;;;;;;7.80;2.67;;;11.20;99.90;;;;;;2069828;28;20124;-82
2023/11/01 00:38:23;;;;;;;6.47;2.50;;;11.20;99.90;;;;;;2065756;28;20080;-82
2023/11/01 00:39:24;;;;;;;5.72;2.70;;;11.30;99.90;;;;;;2057166;28;20035;-81
2023/11/01 00:40:24;;;;;;;5.47;2.47;;;11.30;99.90;;;;;;2060375;28;20025;-82
2023/11/01 00:41:25;;;;;;;3.92;2.40;;;11.30;99.90;;;;;;2057125;28;20374;-82
2023/11/01 00:42:26;;;;;;;5.97;2.53;;;11.30;99.90;;;;;;2046944;28;20023;-82
2023/11/01 00:43:26;;;;;;;5.18;2.70;;;11.30;99.90;;;;;;2047608;28;20031;-83
2023/11/01 00:44:27;;;;;;;6.25;2.60;;;11.30;99.90;;;;;;2058858;28;20029;-81
2023/11/01 00:45:27;;;;;;;4.63;2.53;;;11.30;99.90;;;;;;2051740;28;20566;-81
2023/11/01 00:46:28;;;;;;;5.35;2.70;;;11.30;99.90;;;;;;2059121;28;20040;-82
2023/11/01 00:47:28;;;;;;;5.53;2.70;;;11.30;99.90;;;;;;2064846;28;20027;-80
2023/11/01 00:48:30;;;;;;;7.60;3.10;;;11.40;99.90;;;;;;2053612;28;20077;-81
2023/11/01 00:49:30;;;;;;;6.28;2.58;;;11.40;99.90;;;;;;2059876;28;20146;-80
2023/11/01 00:50:31;;;;;;;9.48;2.80;;;11.40;99.90;;;;;;2065313;28;20022;-81
2023/11/01 00:51:32;;;;;;;5.22;2.92;;;11.40;99.90;;;;;;2057631;28;20408;-80
2023/11/01 00:52:32;;;;;;;7.25;2.60;;;11.40;99.90;;;;;;2052135;28;20062;-79
2023/11/01 00:53:33;;;;;;;4.20;2.53;;;11.50;99.90;;;;;;2055241;28;20150;-81
2023/11/01 00:54:34;;;;;;;5.50;2.60;;;11.40;99.90;;;;;;2058994;28;20374;-81
2023/11/01 00:55:34;;;;;;;5.18;2.47;;;11.50;99.90;;;;;;2066498;28;20049;-80
2023/11/01 00:56:35;;;;;;;4.43;2.40;;;11.50;99.90;;;;;;2060828;28;20033;-80
2023/11/01 00:57:35;;;;;;;5.05;2.53;;;11.50;99.90;;;;;;2056336;28;20030;-82
2023/11/01 00:58:36;;;;;;;6.95;2.78;;;11.50;99.90;;;;;;2066557;28;20491;-81
2023/11/01 00:59:37;;;;;;;6.82;2.60;;;11.50;99.90;;;;;;2058276;28;20052;-81
2023/11/01 01:00:37;;;;;;;6.32;2.60;;;11.50;99.90;;;;;;2056265;28;20500;-81
2023/11/01 01:01:38;;;;;;;4.25;2.30;;;11.50;99.90;;;;;;2056000;28;20019;-80
2023/11/01 01:02:39;;;;;;;5.00;2.60;;;11.50;99.90;;;;;;2055388;28;21479;-80
2023/11/01 01:03:39;;;;;;;8.40;2.30;;;11.50;99.90;;;;;;2051131;28;20382;-81
2023/11/01 01:04:45;;;;;;;6.68;2.60;;;11.60;99.90;;;;;;2058432;28;20660;-81
2023/11/01 01:05:45;;;;;;;7.38;2.50;;;11.50;99.90;;;;;;2045929;28;20027;-80
2023/11/01 01:06:46;;;;;;;4.05;2.50;;;11.50;99.90;;;;;;2050182;28;20416;-79
2023/11/01 01:07:46;;;;;;;6.35;2.63;;;11.60;99.90;;;;;;2063523;28;20539;-80
2023/11/01 01:08:47;;;;;;;9.40;2.70;;;11.60;99.90;;;;;;2056325;28;20074;-80
2023/11/01 01:09:48;;;;;;;4.43;2.45;;;11.60;99.90;;;;;;2052209;28;20113;-80
2023/11/01 01:10:49;;;;;;;6.03;2.63;;;11.60;99.90;;;;;;2049675;28;20026;-80
2023/11/01 01:11:50;;;;;;;6.93;2.80;;;11.60;99.90;;;;;;2053691;28;20571;-81
2023/11/01 01:12:50;;;;;;;7.68;2.45;;;11.60;99.90;;;;;;2062511;28;20081;-79
2023/11/01 01:13:51;;;;;;;4.20;2.45;;;11.60;99.90;;;;;;2064644;28;20033;-81
2023/11/01 01:14:52;;;;;;;6.32;2.53;;;11.60;99.90;;;;;;2058916;28;20015;-81
2023/11/01 01:15:53;;;;;;;4.68;2.65;;;11.60;99.90;;;;;;2066268;28;20022;-81
2023/11/01 01:16:53;;;;;;;5.68;2.55;;;11.60;99.90;;;;;;2058889;28;20416;-81
2023/11/01 01:17:54;;;;;;;4.53;2.53;;;11.60;99.90;;;;;;2062361;28;20535;-80
2023/11/01 01:18:55;;;;;;;5.60;2.28;;;11.60;99.90;;;;;;2071788;28;20585;-82
2023/11/01 01:19:55;;;;;;;3.22;2.30;;;11.60;99.90;;;;;;2066556;28;20088;-80
2023/11/01 01:20:56;;;;;;;7.53;2.15;;;11.70;99.90;;;;;;2066647;28;20037;-82
2023/11/01 01:21:56;;;;;;;4.38;2.30;;;11.70;99.90;;;;;;2058987;28;20547;-80
2023/11/01 01:22:57;;;;;;;4.57;2.33;;;11.70;99.90;;;;;;2050779;28;20031;-80
2023/11/01 01:23:58;;;;;;;4.47;2.20;;;11.70;99.90;;;;;;2047581;28;20031;-83
2023/11/01 01:24:59;;;;;;;7.32;2.03;;;11.70;99.90;;;;;;2060752;28;20055;-81
2023/11/01 01:26:00;;;;;;;3.13;2.10;;;11.70;99.90;;;;;;2067280;28;20122;-80
2023/11/01 01:27:00;;;;;;;4.97;2.30;;;11.70;99.90;;;;;;2064996;28;20068;-80
2023/11/01 01:28:01;;;;;;;3.50;2.25;;;11.70;99.90;;;;;;2062739;28;20030;-80
2023/11/01 01:29:02;;;;;;;4.95;2.25;;;11.70;99.90;;;;;;2046308;28;20518;-80
2023/11/01 01:30:03;;;;;;;3.60;2.20;;;11.80;99.90;;;;;;2049250;28;20045;-79
2023/11/01 01:31:04;;;;;;;2.90;2.30;;;11.70;99.90;;;;;;2062667;28;20026;-78
2023/11/01 01:32:05;;;;;;;6.78;2.30;;;11.80;99.90;;;;;;2056302;28;20041;-79
2023/11/01 01:33:06;;;;;;;4.75;2.13;;;11.70;99.90;;;;;;2052667;28;20125;-79
2023/11/01 01:34:06;;;;;;;5.72;2.25;;;11.70;99.90;;;;;;2060648;28;20050;-77
2023/11/01 01:35:07;;;;;;;4.20;2.47;;;11.70;99.90;;;;;;2059324;28;20035;-80
2023/11/01 01:36:08;;;;;;;5.18;2.10;;;11.80;99.90;;;;;;2066404;28;20018;-81
2023/11/01 01:37:08;;;;;;;3.85;2.10;;;11.70;99.90;;;;;;2067246;28;20095;-79
2023/11/01 01:38:09;;;;;;;5.85;2.40;;;11.70;99.90;;;;;;2066376;28;20038;-81
2023/11/01 01:39:09;;;;;;;5.32;2.40;;;11.70;99.90;;;;;;2063628;28;20125;-80
2023/11/01 01:40:11;;;;;;;2.90;2.08;;;11.70;99.90;;;;;;2061710;28;20030;-81
2023/11/01 01:41:11;;;;;;;6.45;2.30;;;11.70;99.90;;;;;;2049399;28;20029;-81
2023/11/01 01:42:13;;;;;;;4.63;2.10;;;11.80;99.90;;;;;;2042468;29;20035;-81
2023/11/01 01:43:21;;;;;;;3.80;2.10;;;11.70;99.90;;;;;;2049365;28;20031;-79
2023/11/01 01:44:22;;;;;;;4.00;2.28;;;11.70;99.90;;;;;;2051878;28;20030;-75
2023/11/01 01:45:22;;;;;;;3.47;2.08;;;11.70;99.90;;;;;;2056177;28;20583;-75
2023/11/01 01:46:28;;;;;;;3.75;2.40;;;11.70;99.90;;;;;;2058384;28;20117;-81
2023/11/01 01:47:29;;;;;;;2.97;2.13;;;11.70;99.90;;;;;;2042665;28;20030;-76
2023/11/01 01:48:30;;;;;;;3.97;2.20;;;11.70;99.90;;;;;;2052921;28;20102;-74
2023/11/01 01:49:31;;;;;;;4.50;2.00;;;11.70;99.90;;;;;;2065608;28;20022;-74
2023/11/01 01:50:32;;;;;;;5.35;2.05;;;11.70;99.90;;;;;;2064023;28;20527;-74
2023/11/01 01:51:34;;;;;;;3.60;2.20;;;11.70;99.90;;;;;;2063384;28;20096;-74
2023/11/01 01:52:35;;;;;;;5.68;2.10;;;11.70;99.90;;;;;;2064349;28;20033;-74
2023/11/01 01:53:38;;;;;;;5.03;2.17;;;11.70;99.90;;;;;;2066247;28;20551;-75
2023/11/01 01:54:39;;;;;;;4.78;2.20;;;11.70;99.90;;;;;;2058233;28;20061;-75
2023/11/01 01:55:40;;;;;;;3.53;1.95;;;11.70;99.90;;;;;;2058691;28;20022;-75
2023/11/01 01:56:41;;;;;;;5.05;2.40;;;11.70;99.90;;;;;;2066401;28;20428;-75
2023/11/01 01:57:41;;;;;;;3.42;1.90;;;11.70;99.90;;;;;;2066688;28;20057;-74
2023/11/01 01:58:44;;;;;;;3.47;2.10;;;11.70;99.90;;;;;;2068479;28;20780;-74
2023/11/01 01:59:45;;;;;;;2.42;1.80;;;11.70;99.90;;;;;;2054444;28;20587;-76
2023/11/01 02:00:46;;;;;;;4.35;2.10;;;11.60;99.90;;;;;;2052337;28;20030;-76
2023/11/01 02:01:49;;;;;;;4.25;2.10;;;11.70;99.90;;;;;;2060929;28;20508;-76
2023/11/01 02:02:52;;;;;;;5.32;2.17;;;11.60;99.90;;;;;;2057030;28;20110;-76
2023/11/01 02:03:53;;;;;;;5.00;2.20;;;11.70;99.90;;;;;;2056300;28;20527;-76
2023/11/01 02:04:54;;;;;;;4.88;2.20;;;11.60;99.90;;;;;;2058339;28;20026;-76
2023/11/01 02:05:56;;;;;;;3.00;2.03;;;11.60;99.90;;;;;;2043780;28;20054;-74
2023/11/01 02:06:57;;;;;;;5.45;2.20;;;11.60;99.90;;;;;;2051808;28;20026;-74
2023/11/01 02:07:59;;;;;;;4.18;2.20;;;11.60;99.90;;;;;;2069047;28;20974;-75
2023/11/01 02:09:00;;;;;;;3.25;2.05;;;11.60;99.90;;;;;;2050362;28;20029;-74
2023/11/01 02:10:02;;;;;;;2.53;2.03;;;11.60;99.90;;;;;;2042369;28;20027;-74
2023/11/01 02:11:04;;;;;;;2.97;2.05;;;11.60;99.90;;;;;;2056362;28;20098;-75
2023/11/01 02:12:05;;;;;;;5.18;2.17;;;11.60;99.90;;;;;;2055584;28;20425;-74
2023/11/01 02:13:13;;;;;;;3.97;1.92;;;11.60;99.90;;;;;;2057916;28;20112;-76
2023/11/01 02:14:14;;;;;;;3.38;2.28;;;11.60;99.90;;;;;;2068532;28;20383;-75
2023/11/01 02:15:16;;;;;;;4.68;2.10;;;11.60;99.90;;;;;;2056222;28;20033;-76
2023/11/01 02:16:16;;;;;;;4.90;2.05;;;11.60;99.90;;;;;;2044854;28;20045;-75
2023/11/01 02:17:17;;;;;;;3.97;2.20;;;11.60;99.90;;;;;;2048949;28;20145;-74
2023/11/01 02:18:18;;;;;;;5.53;2.20;;;11.60;99.90;;;;;;2050566;28;20500;-77
2023/11/01 02:19:18;;;;;;;3.30;2.03;;;11.60;99.90;;;;;;2056700;28;20105;-75
2023/11/01 02:20:20;;;;;;;3.03;2.00;;;11.60;99.90;;;;;;2055548;28;20639;-75
2023/11/01 02:21:21;;;;;;;4.40;2.10;;;11.60;99.90;;;;;;2066937;28;20026;-75
2023/11/01 02:22:21;;;;;;;4.35;2.20;;;11.60;99.90;;;;;;2063364;28;20474;-75
2023/11/01 02:23:33;;;;;;;4.10;2.10;;;11.60;99.90;;;;;;2058180;28;20109;-75
2023/11/01 02:24:33;;;;;;;3.30;2.15;;;11.60;99.90;;;;;;2053950;28;20035;-75
2023/11/01 02:25:34;;;;;;;3.95;1.88;;;11.60;99.90;;;;;;2058220;28;20606;-75
2023/11/01 02:26:35;;;;;;;4.82;1.90;;;11.60;99.90;;;;;;2063951;28;20085;-75
2023/11/01 02:27:36;;;;;;;2.75;1.90;;;11.60;99.90;;;;;;2063295;28;20483;-75
2023/11/01 02:28:37;;;;;;;3.10;1.92;;;11.60;99.90;;;;;;2069113;28;20025;-75
2023/11/01 02:29:38;;;;;;;2.28;1.75;;;11.60;99.90;;;;;;2064684;28;20029;-75
2023/11/01 02:30:42;;;;;;;2.78;2.05;;;11.60;99.90;;;;;;2063933;28;20026;-74
2023/11/01 02:31:43;;;;;;;3.72;1.98;;;11.60;99.90;;;;;;2057205;28;20893;-75
2023/11/01 02:32:48;;;;;;;3.55;1.80;;;11.70;99.90;;;;;;2056152;28;20130;-75
2023/11/01 02:33:48;;;;;;;6.22;2.17;;;11.70;99.90;;;;;;2058507;28;20042;-76
2023/11/01 02:34:49;;;;;;;4.07;2.10;;;11.70;99.90;;;;;;2057046;28;20026;-75
2023/11/01 02:35:50;;;;;;;2.70;1.95;;;11.70;99.90;;;;;;2057059;28;20101;-76
2023/11/01 02:36:50;;;;;;;2.65;2.08;;;11.70;99.90;;;;;;2063582;28;20062;-75
2023/11/01 02:37:51;;;;;;;6.68;2.55;;;11.70;99.90;;;;;;2065014;28;20062;-75
2023/11/01 02:38:52;;;;;;;2.85;1.80;;;11.60;99.90;;;;;;2064677;28;20046;-75
2023/11/01 02:39:53;;;;;;;2.40;1.70;;;11.60;99.90;;;;;;2066974;28;20022;-75
2023/11/01 02:40:53;;;;;;;4.60;2.03;;;11.60;99.90;;;;;;2063972;28;20496;-75
2023/11/01 02:41:54;;;;;;;2.88;1.90;;;11.60;99.90;;;;;;2061179;28;20087;-75
2023/11/01 02:42:57;;;;;;;3.55;2.00;;;11.60;99.90;;;;;;2064108;28;20030;-74
2023/11/01 02:43:58;;;;;;;3.75;2.03;;;11.70;99.90;;;;;;2064643;28;20034;-76
2023/11/01 02:44:58;;;;;;;3.55;2.13;;;11.60;99.90;;;;;;2062869;28;20904;-76
2023/11/01 02:45:59;;;;;;;3.47;1.90;;;11.70;99.90;;;;;;2063299;28;20044;-76
2023/11/01 02:47:00;;;;;;;2.97;1.98;;;11.60;99.90;;;;;;2063567;28;20038;-75
2023/11/01 02:48:01;;;;;;;2.65;1.88;;;11.70;99.90;;;;;;2045244;28;20440;-75
2023/11/01 02:49:03;;;;;;;5.35;2.05;;;11.70;99.90;;;;;;2051459;28;20022;-77
2023/11/01 02:50:06;;;;;;;3.00;2.00;;;11.70;99.90;;;;;;2057386;28;20034;-75
2023/11/01 02:51:07;;;;;;;3.45;1.92;;;11.70;99.90;;;;;;2057180;28;20049;-76
2023/11/01 02:52:07;;;;;;;3.10;1.70;;;11.70;99.90;;;;;;2064656;28;20476;-76
2023/11/01 02:53:08;;;;;;;2.58;1.77;;;11.70;99.90;;;;;;2063632;28;20129;-75
2023/11/01 02:54:09;;;;;;;3.72;1.90;;;11.70;99.90;;;;;;2065974;28;20060;-76
2023/11/01 02:55:11;;;;;;;4.22;1.65;;;11.70;99.90;;;;;;2066250;28;20547;-75
2023/11/01 02:56:12;;;;;;;2.90;2.00;;;11.70;99.90;;;;;;2059383;28;20539;-74
2023/11/01 02:57:12;;;;;;;3.13;1.90;;;11.70;99.90;;;;;;2050027;28;20110;-76
2023/11/01 02:58:13;;;;;;;5.88;2.03;;;11.70;99.90;;;;;;2047686;28;20042;-76
2023/11/01 02:59:13;;;;;;;5.40;1.88;;;11.70;99.90;;;;;;2049684;28;20030;-75
2023/11/01 03:00:20;;;;;;;7.13;1.85;;;11.70;99.90;;;;;;2057531;28;20392;-74
2023/11/01 03:01:21;;;;;;;3.28;1.90;;;11.70;99.90;;;;;;2064879;28;20124;-75
2023/11/01 03:02:22;;;;;;;3.00;1.83;;;11.70;99.90;;;;;;2064944;28;20128;-75
2023/11/01 03:03:22;;;;;;;3.08;2.05;;;11.70;99.90;;;;;;2061916;28;20038;-74
2023/11/01 03:04:23;;;;;;;2.78;1.80;;;11.70;99.90;;;;;;2062666;28;20049;-76
2023/11/01 03:05:25;;;;;;;2.75;1.60;;;11.60;99.90;;;;;;2057187;28;20550;-75
2023/11/01 03:06:26;;;;;;;2.65;1.73;;;11.70;99.90;;;;;;2053388;28;20134;-75
2023/11/01 03:07:26;;;;;;;3.10;1.70;;;11.70;99.90;;;;;;2048525;28;20196;-75
2023/11/01 03:08:27;;;;;;;3.58;1.70;;;11.70;99.90;;;;;;2054161;28;20026;-75
2023/11/01 03:09:27;;;;;;;2.88;1.65;;;11.70;99.90;;;;;;2051079;28;20022;-75
2023/11/01 03:10:28;;;;;;;2.72;1.60;;;11.70;99.90;;;;;;2054802;28;20555;-74
2023/11/01 03:11:29;;;;;;;5.68;2.22;;;11.70;99.90;;;;;;2049275;28;20078;-74
2023/11/01 03:12:30;;;;;;;4.43;1.70;;;11.70;99.90;;;;;;2046931;28;20502;-75
2023/11/01 03:13:31;;;;;;;4.30;1.70;;;11.70;99.90;;;;;;2057803;28;20041;-75
2023/11/01 03:14:31;;;;;;;3.10;1.80;;;11.70;99.90;;;;;;2063191;28;20498;-75
2023/11/01 03:15:32;;;;;;;3.10;1.70;;;11.70;99.90;;;;;;2055856;28;20062;-75
2023/11/01 03:16:35;;;;;;;2.53;1.63;;;11.70;99.90;;;;;;2049653;28;20026;-75
2023/11/01 03:17:36;;;;;;;2.65;1.77;;;11.70;99.90;;;;;;2050235;28;20030;-75
2023/11/01 03:18:37;;;;;;;2.97;1.70;;;11.70;99.90;;;;;;2049671;28;20043;-74
2023/11/01 03:19:38;;;;;;;2.00;1.60;;;11.60;99.90;;;;;;2052779;28;20043;-75
2023/11/01 03:20:38;;;;;;;2.65;1.60;;;11.60;99.90;;;;;;2063167;28;20132;-75
2023/11/01 03:21:41;;;;;;;3.20;1.90;;;11.60;99.90;;;;;;2057039;28;20132;-76
2023/11/01 03:22:42;;;;;;;3.10;1.80;;;11.60;99.90;;;;;;2055102;28;20080;-75
2023/11/01 03:23:42;;;;;;;3.17;1.65;;;11.60;99.90;;;;;;2040788;28;20114;-75
2023/11/01 03:24:43;;;;;;;3.90;1.80;;;11.60;99.90;;;;;;2056678;28;20397;-75
2023/11/01 03:25:43;;;;;;;2.67;1.60;;;11.60;99.90;;;;;;2068260;28;20735;-75
2023/11/01 03:26:45;;;;;;;1.83;1.70;;;11.50;99.90;;;;;;2057718;28;20030;-75
2023/11/01 03:27:46;;;;;;;3.35;1.70;;;11.50;99.90;;;;;;2059385;28;20092;-75
2023/11/01 03:28:46;;;;;;;5.47;1.92;;;11.50;99.90;;;;;;2059926;28;20097;-75
2023/11/01 03:29:47;;;;;;;2.30;1.70;;;11.50;99.90;;;;;;2054854;28;20173;-76
2023/11/01 03:30:48;;;;;;;3.47;1.40;;;11.50;99.90;;;;;;2058932;28;20054;-74
2023/11/01 03:31:48;;;;;;;3.28;1.50;;;11.50;99.90;;;;;;2055121;28;20057;-75
2023/11/01 03:32:49;;;;;;;3.75;1.70;;;11.50;99.90;;;;;;2058020;28;20070;-75
2023/11/01 03:33:50;;;;;;;2.75;1.63;;;11.50;99.90;;;;;;2065883;28;20030;-75
2023/11/01 03:34:51;;;;;;;2.30;1.75;;;11.50;99.90;;;;;;2055687;28;20062;-75
2023/11/01 03:35:52;;;;;;;2.38;1.60;;;11.50;99.90;;;;;;2055072;28;20602;-74
2023/11/01 03:36:53;;;;;;;3.63;1.70;;;11.50;99.90;;;;;;2046261;28;20102;-75
2023/11/01 03:37:53;;;;;;;2.15;1.50;;;11.60;99.90;;;;;;2042085;28;20011;-75
2023/11/01 03:38:54;;;;;;;3.55;1.70;;;11.70;99.90;;;;;;2057788;28;20635;-74
2023/11/01 03:39:54;;;;;;;2.65;1.60;;;11.70;99.90;;;;;;2060960;28;20041;-75
2023/11/01 03:40:55;;;;;;;3.72;1.75;;;11.70;99.90;;;;;;2064227;28;20022;-75
2023/11/01 03:41:56;;;;;;;2.63;1.52;;;11.70;99.90;;;;;;2065665;28;20024;-74
2023/11/01 03:42:58;;;;;;;4.18;1.50;;;11.70;99.90;;;;;;2064716;28;20057;-74
2023/11/01 03:43:59;;;;;;;3.28;1.60;;;11.70;99.90;;;;;;2059404;28;20101;-74
2023/11/01 03:44:59;;;;;;;2.25;1.50;;;11.70;99.90;;;;;;2050873;28;20035;-75
2023/11/01 03:46:00;;;;;;;5.97;1.70;;;11.70;99.90;;;;;;2057096;28;20724;-75
2023/11/01 03:47:02;;;;;;;2.40;1.45;;;11.70;99.90;;;;;;2054117;28;20030;-74
2023/11/01 03:48:03;;;;;;;4.03;1.60;;;11.70;99.90;;;;;;2056596;28;20082;-75
2023/11/01 03:49:04;;;;;;;2.45;1.70;;;11.70;99.90;;;;;;2062990;28;20030;-76
2023/11/01 03:50:05;;;;;;;4.97;1.70;;;11.70;99.90;;;;;;2063513;28;20105;-74
2023/11/01 03:51:06;;;;;;;3.92;1.70;;;11.80;99.90;;;;;;2063049;28;20064;-74
2023/11/01 03:52:06;;;;;;;3.83;1.60;;;11.80;99.90;;;;;;2057493;28;20052;-74
2023/11/01 03:53:08;;;;;;;2.55;1.55;;;11.80;99.90;;;;;;2041793;29;20456;-74
2023/11/01 03:54:08;;;;;;;3.55;1.60;;;11.80;99.90;;;;;;2045953;28;20027;-74
2023/11/01 03:55:11;;;;;;;2.53;1.58;;;11.80;99.90;;;;;;2053247;28;20117;-75
2023/11/01 03:56:12;;;;;;;2.92;1.65;;;11.80;99.90;;;;;;2050339;28;20030;-75
2023/11/01 03:57:13;;;;;;;2.30;1.65;;;11.80;99.90;;;;;;2066637;28;20112;-75
2023/11/01 03:58:13;;;;;;;3.10;1.40;;;11.80;99.90;;;;;;2069423;28;20109;-74
2023/11/01 03:59:14;;;;;;;4.90;1.70;;;11.80;99.90;;;;;;2049975;28;20129;-75
2023/11/01 04:00:20;;;;;;;3.25;1.50;;;11.80;99.90;;;;;;2046405;28;20047;-74
2023/11/01 04:01:21;;;;;;;2.08;1.38;;;11.80;99.90;;;;;;2058425;28;20026;-74
2023/11/01 04:02:22;;;;;;;2.70;1.38;;;11.80;99.90;;;;;;2055320;28;20575;-74
2023/11/01 04:03:23;;;;;;;3.60;1.50;;;11.80;99.90;;;;;;2056428;28;20125;-75
2023/11/01 04:04:24;;;;;;;3.55;1.60;;;11.90;99.90;;;;;;2057587;28;20023;-75
2023/11/01 04:05:24;;;;;;;2.97;1.50;;;11.80;99.90;;;;;;2056346;28;20598;-75
2023/11/01 04:06:25;;;;;;;3.08;1.60;;;11.80;99.90;;;;;;2048636;28;20039;-74
2023/11/01 04:07:25;;;;;;;2.88;1.70;;;11.80;99.90;;;;;;2052480;28;20041;-74
2023/11/01 04:08:26;;;;;;;3.42;1.60;;;11.80;99.90;;;;;;2066792;28;20021;-76
2023/11/01 04:09:27;;;;;;;2.60;1.42;;;11.80;99.90;;;;;;2060730;28;20132;-76
2023/11/01 04:10:27;;;;;;;3.72;1.50;;;11.80;99.90;;;;;;2053157;28;20571;-76
2023/11/01 04:11:28;;;;;;;2.55;1.50;;;11.80;99.90;;;;;;2052773;28;20739;-74
2023/11/01 04:12:28;;;;;;;3.03;1.35;;;11.80;99.90;;;;;;2055427;28;20089;-74
2023/11/01 04:13:29;;;;;;;2.88;1.48;;;11.80;99.90;;;;;;2066267;28;20061;-76
2023/11/01 04:14:29;;;;;;;2.85;1.65;;;11.80;99.90;;;;;;2066359;28;20492;-74
2023/11/01 04:15:31;;;;;;;3.40;1.60;;;11.80;99.90;;;;;;2057724;28;20657;-74
2023/11/01 04:16:32;;;;;;;2.92;1.67;;;11.80;99.90;;;;;;2057756;28;20069;-74
2023/11/01 04:17:33;;;;;;;1.52;1.42;;;11.80;99.90;;;;;;2070390;28;20862;-73
2023/11/01 04:18:34;;;;;;;2.08;1.70;;;11.80;99.90;;;;;;2068258;28;20057;-74
2023/11/01 04:19:35;;;;;;;1.83;1.40;;;11.80;99.90;;;;;;2063558;28;20028;-74
2023/11/01 04:20:35;;;;;;;3.67;1.70;;;11.80;99.90;;;;;;2062863;28;20057;-74
2023/11/01 04:21:36;;;;;;;2.92;1.60;;;11.80;99.90;;;;;;2062933;28;20034;-74
2023/11/01 04:22:37;;;;;;;6.07;1.60;;;11.80;99.90;;;;;;2058992;28;20105;-74
2023/11/01 04:23:38;;;;;;;3.28;1.55;;;11.80;99.90;;;;;;2057372;28;20057;-74
2023/11/01 04:24:39;;;;;;;3.20;1.50;;;11.80;99.90;;;;;;2065917;28;20025;-75
2023/11/01 04:25:39;;;;;;;2.22;1.33;;;11.70;99.90;;;;;;2066034;28;20049;-74
2023/11/01 04:26:40;;;;;;;2.20;1.50;;;11.70;99.90;;;;;;2064596;28;20045;-74
2023/11/01 04:27:41;;;;;;;2.17;1.70;;;11.70;99.90;;;;;;2068443;28;20112;-75
2023/11/01 04:28:41;;;;;;;4.32;1.60;;;11.70;99.90;;;;;;2069556;28;20644;-74
2023/11/01 04:29:43;;;;;;;1.60;1.50;;;11.70;99.90;;;;;;2061403;28;20054;-74
2023/11/01 04:30:44;;;;;;;3.03;1.80;;;11.60;99.90;;;;;;2059122;28;20389;-75
2023/11/01 04:31:44;;;;;;;4.22;1.98;;;11.60;99.90;;;;;;2065175;28;20032;-74
2023/11/01 04:32:45;;;;;;;3.42;1.95;;;11.60;99.90;;;;;;2066229;28;20304;-74
2023/11/01 04:33:45;;;;;;;3.63;1.98;;;11.60;99.90;;;;;;2067127;28;20057;-75
2023/11/01 04:34:49;;;;;;;2.63;1.88;;;11.60;99.90;;;;;;2058159;28;20604;-75
2023/11/01 04:35:53;;;;;;;4.40;2.22;;;11.60;99.90;;;;;;2054347;28;20035;-75
2023/11/01 04:36:54;;;;;;;3.40;1.90;;;11.60;99.90;;;;;;2066410;28;20487;-74
2023/11/01 04:37:55;;;;;;;3.15;1.90;;;11.50;99.90;;;;;;2064146;28;20109;-74
2023/11/01 04:38:57;;;;;;;2.60;1.73;;;11.50;99.90;;;;;;2066536;28;20042;-74
2023/11/01 04:39:57;;;;;;;5.70;1.80;;;11.50;99.90;;;;;;2066007;28;20053;-74
2023/11/01 04:40:58;;;;;;;3.55;1.80;;;11.50;99.90;;;;;;2063492;28;20038;-74
2023/11/01 04:41:58;;;;;;;3.45;1.90;;;11.40;99.90;;;;;;2055787;28;20034;-74
2023/11/01 04:42:59;;;;;;;4.15;2.40;;;11.40;99.90;;;;;;2060130;28;20057;-75
2023/11/01 04:44:00;;;;;;;11.93;6.57;;;11.40;99.90;;;;;;2061729;28;20022;-74
2023/11/01 04:45:00;;;;;;;11.05;5.95;;;11.40;99.90;;;;;;2051671;28;20031;-75
2023/11/01 04:46:01;;;;;;;13.00;5.88;;;11.40;99.90;;;;;;2051364;28;20090;-75
2023/11/01 04:47:01;;;;;;;7.80;4.40;;;11.40;99.90;;;;;;2059134;28;20018;-75
2023/11/01 04:48:03;;;;;;;10.10;5.15;;;11.40;99.90;;;;;;2056149;28;20026;-76
2023/11/01 04:49:04;;;;;;;10.82;6.20;;;11.40;99.90;;;;;;2059442;28;20030;-74
2023/11/01 04:50:08;;;;;;;16.25;8.90;;;11.40;99.90;;;;;;2063305;28;20515;-74
2023/11/01 04:51:09;;;;;;;15.70;8.80;;;11.40;99.90;;;;;;2058159;28;20030;-74
2023/11/01 04:52:09;;;;;;;16.67;9.30;;;11.40;99.90;;;;;;2039453;29;20075;-74
2023/11/01 04:53:10;;;;;;;15.65;8.35;;;11.40;99.90;;;;;;2038183;29;20027;-74
2023/11/01 04:54:10;;;;;;;14.63;7.50;;;11.40;99.90;;;;;;2051478;28;20047;-75
2023/11/01 04:55:11;;;;;;;11.13;6.50;;;11.40;99.90;;;;;;2063293;28;20038;-75
2023/11/01 04:56:12;;;;;;;9.00;5.07;;;11.50;99.90;;;;;;2067050;28;20503;-75
2023/11/01 04:57:12;;;;;;;10.10;4.80;;;11.50;99.90;;;;;;2063828;28;20026;-76
2023/11/01 04:58:13;;;;;;;7.45;4.53;;;11.50;99.90;;;;;;2062879;28;20045;-76
2023/11/01 04:59:13;;;;;;;7.57;4.65;;;11.50;99.90;;;;;;2066236;28;20141;-76
2023/11/01 05:00:17;;;;;;;8.40;4.45;;;11.50;99.90;;;;;;2056111;28;20025;-75
2023/11/01 05:01:19;;;;;;;8.02;4.30;;;11.50;99.90;;;;;;2059292;28;20019;-74
2023/11/01 05:02:21;;;;;;;7.22;3.97;;;11.50;99.90;;;;;;2058585;28;20815;-75
2023/11/01 05:03:22;;;;;;;8.70;4.68;;;11.60;99.90;;;;;;2060391;28;20029;-74
2023/11/01 05:04:23;;;;;;;6.45;3.95;;;11.60;99.90;;;;;;2058054;28;20054;-75
2023/11/01 05:05:24;;;;;;;5.85;3.70;;;11.60;99.90;;;;;;2054862;28;20077;-74
2023/11/01 05:06:26;;;;;;;5.53;3.50;;;11.60;99.90;;;;;;2064469;28;20124;-74
2023/11/01 05:07:27;;;;;;;6.07;3.25;;;11.60;99.90;;;;;;2060985;28;20397;-76
2023/11/01 05:08:28;;;;;;;7.78;4.40;;;11.60;99.90;;;;;;2066402;28;20133;-75
2023/11/01 05:09:28;;;;;;;6.35;3.85;;;11.50;99.90;;;;;;2064742;28;20049;-74
2023/11/01 05:10:29;;;;;;;7.05;4.43;;;11.50;99.90;;;;;;2064352;28;20032;-74
2023/11/01 05:11:30;;;;;;;8.75;4.20;;;11.50;99.90;;;;;;2064799;28;20018;-74
2023/11/01 05:12:31;;;;;;;6.15;3.75;;;11.50;99.90;;;;;;2051477;28;20579;-75
2023/11/01 05:13:31;;;;;;;4.55;3.15;;;11.50;99.90;;;;;;2056895;28;20045;-75
2023/11/01 05:14:32;;;;;;;6.35;3.50;;;11.50;99.90;;;;;;2065837;28;20446;-75
2023/11/01 05:15:34;;;;;;;8.13;3.40;;;11.50;99.90;;;;;;2065436;28;20392;-75
2023/11/01 05:16:34;;;;;;;5.20;3.13;;;11.40;99.90;;;;;;2061653;28;20098;-74
2023/11/01 05:17:35;;;;;;;3.92;2.97;;;11.50;99.90;;;;;;2062820;28;20809;-75